Terminal Aerodrome Forecast
Issued by NWS

Home | Current Version | Previous Version | Text Only | Print | Product List | Glossary On
Versions: 1 2 3 4 5 6 7 8 9 10 11 12 13 14 15
000
FTUS45 KVEF 261700 RRA
TAFBIH
TAF
KBIH 261741Z 2618/2718 34008KT P6SM OVC200
     FM262100 17007KT P6SM FEW100 BKN150 OVC200
     FM270300 18006KT P6SM VCSH SCT050 OVC100
     FM270600 VRB05KT 5SM -RA SCT020 OVC030=

USA.gov is the U.S. government's official web portal to all federal, state and local government web resources and services.